Time;durP1;ratioP1;P1;durP2;ratioP2;P2;SDS_P1;SDS_P2;PMS_P1;PMS_P2;Temp;Humidity;BMP_temperature;BMP_pressure;BME280_temperature;BME280_humidity;BME280_pressure;Samples;Min_cycle;Max_cycle;Signal;HPM_P1;HPM_P2
2021/08/01 00:01:35;;;;;;;7.83;5.60;;;19.90;77.80;;;;;;5073791;28;20618;-72
2021/08/01 00:04:02;;;;;;;6.30;5.33;;;19.90;78.00;;;;;;5073421;28;20966;-72
2021/08/01 00:06:28;;;;;;;5.40;4.90;;;19.90;77.90;;;;;;5073408;28;20451;-73
2021/08/01 00:08:55;;;;;;;5.73;4.50;;;19.80;78.40;;;;;;5073680;28;20459;-73
2021/08/01 00:11:23;;;;;;;6.67;5.20;;;19.80;78.40;;;;;;5073278;28;20919;-73
2021/08/01 00:13:50;;;;;;;6.40;5.77;;;19.80;78.60;;;;;;5073501;28;20467;-73
2021/08/01 00:16:17;;;;;;;7.13;5.47;;;19.80;78.60;;;;;;5073560;28;20816;-72
2021/08/01 00:18:44;;;;;;;6.13;5.40;;;19.70;78.90;;;;;;5073553;28;20440;-73
2021/08/01 00:21:11;;;;;;;6.80;5.77;;;19.70;79.10;;;;;;5073523;28;20449;-73
2021/08/01 00:23:37;;;;;;;5.90;4.73;;;19.70;79.30;;;;;;5073050;28;20469;-73
2021/08/01 00:26:04;;;;;;;6.33;5.27;;;19.70;79.40;;;;;;5073456;28;20444;-73
2021/08/01 00:28:32;;;;;;;5.40;5.00;;;19.60;79.90;;;;;;5073460;28;20494;-73
2021/08/01 00:30:59;;;;;;;5.57;4.97;;;19.60;79.50;;;;;;5073098;28;20909;-73
2021/08/01 00:33:26;;;;;;;5.63;5.03;;;19.50;79.70;;;;;;5073213;28;20491;-73
2021/08/01 00:35:53;;;;;;;5.33;4.83;;;19.50;80.80;;;;;;5073342;28;20857;-73
2021/08/01 00:38:19;;;;;;;5.60;5.10;;;19.50;79.90;;;;;;5073342;28;20456;-73
2021/08/01 00:40:46;;;;;;;5.70;5.13;;;19.50;80.10;;;;;;5073318;28;20445;-73
2021/08/01 00:43:13;;;;;;;5.80;5.23;;;19.50;80.20;;;;;;5076851;28;20467;-73
2021/08/01 00:45:41;;;;;;;5.93;5.30;;;19.40;80.20;;;;;;5077383;28;20448;-72
2021/08/01 00:48:09;;;;;;;6.07;5.20;;;19.30;80.70;;;;;;5077349;28;20444;-73
2021/08/01 00:50:36;;;;;;;6.67;6.07;;;19.30;81.00;;;;;;5078162;28;20441;-73
2021/08/01 00:53:04;;;;;;;6.27;5.67;;;19.30;81.20;;;;;;5077097;28;20559;-73
2021/08/01 00:55:30;;;;;;;7.20;6.60;;;19.30;81.00;;;;;;5077177;28;20447;-73
2021/08/01 00:57:57;;;;;;;6.63;5.87;;;19.30;81.50;;;;;;5077172;28;20444;-73
2021/08/01 01:00:41;;;;;;;6.97;6.27;;;19.30;81.70;;;;;;5077123;28;20446;-73
2021/08/01 01:03:17;;;;;;;6.40;5.73;;;19.20;81.20;;;;;;5077031;28;20863;-73
2021/08/01 01:05:52;;;;;;;7.23;6.50;;;19.20;81.90;;;;;;5077025;28;20425;-72
2021/08/01 01:08:30;;;;;;;5.87;5.33;;;19.20;82.20;;;;;;5077021;28;20435;-72
2021/08/01 01:10:59;;;;;;;6.97;6.27;;;19.10;82.30;;;;;;5076972;28;20432;-73
2021/08/01 01:13:28;;;;;;;7.60;6.90;;;19.10;82.60;;;;;;5076714;28;20480;-73
2021/08/01 01:15:57;;;;;;;7.40;6.70;;;19.10;82.40;;;;;;5076793;28;20444;-72
2021/08/01 01:18:29;;;;;;;5.97;5.43;;;19.10;82.50;;;;;;5076764;28;20452;-72
2021/08/01 01:21:10;;;;;;;7.80;6.17;;;19.20;82.00;;;;;;5076795;28;20428;-73
2021/08/01 01:23:41;;;;;;;7.50;5.67;;;19.20;81.90;;;;;;5076263;28;20487;-72
2021/08/01 01:26:13;;;;;;;6.80;6.10;;;19.20;81.80;;;;;;5076759;28;20793;-72
2021/08/01 01:28:45;;;;;;;8.30;6.00;;;19.20;82.30;;;;;;5076605;28;20429;-72
2021/08/01 01:31:21;;;;;;;5.93;5.43;;;19.20;81.80;;;;;;5076571;28;20838;-72
2021/08/01 01:33:56;;;;;;;5.90;5.30;;;19.20;82.00;;;;;;5076365;28;20510;-73
2021/08/01 01:36:27;;;;;;;8.90;5.60;;;19.20;82.90;;;;;;5076476;28;20424;-72
2021/08/01 01:38:54;;;;;;;6.40;5.70;;;19.20;82.10;;;;;;5076474;28;20457;-72
2021/08/01 01:41:22;;;;;;;6.10;5.50;;;19.20;81.90;;;;;;5076008;28;20447;-72
2021/08/01 01:43:51;;;;;;;7.50;5.83;;;19.10;81.90;;;;;;5076196;28;20463;-72
2021/08/01 01:46:18;;;;;;;5.80;5.30;;;19.20;82.60;;;;;;5076255;28;20848;-72
2021/08/01 01:48:46;;;;;;;7.60;5.50;;;19.20;82.10;;;;;;5075896;28;20444;-72
2021/08/01 01:51:14;;;;;;;6.40;5.80;;;19.10;81.90;;;;;;5076156;28;20498;-72
2021/08/01 01:53:43;;;;;;;5.90;5.23;;;19.00;82.20;;;;;;5075169;28;20484;-72
2021/08/01 01:56:12;;;;;;;5.93;5.33;;;19.00;82.50;;;;;;5076042;28;20445;-72
2021/08/01 01:58:40;;;;;;;7.53;5.37;;;18.90;82.60;;;;;;5076069;28;20863;-72
2021/08/01 02:01:06;;;;;;;6.30;4.87;;;19.00;83.50;;;;;;5076007;28;20441;-73
2021/08/01 02:03:33;;;;;;;5.97;5.47;;;18.90;82.30;;;;;;5075560;28;20468;-73
2021/08/01 02:06:00;;;;;;;5.63;5.13;;;18.90;83.10;;;;;;5075905;28;20618;-74
2021/08/01 02:08:33;;;;;;;5.53;4.33;;;18.80;82.80;;;;;;5075530;28;20959;-73
2021/08/01 02:11:02;;;;;;;5.90;5.30;;;18.90;82.90;;;;;;5075846;28;20433;-74
2021/08/01 02:13:36;;;;;;;5.30;4.80;;;18.80;82.60;;;;;;5075332;28;20998;-72
2021/08/01 02:16:05;;;;;;;5.33;4.83;;;18.80;83.20;;;;;;5075727;28;20432;-72
2021/08/01 02:18:37;;;;;;;5.00;4.60;;;18.80;82.80;;;;;;5075645;28;20455;-72
2021/08/01 02:21:05;;;;;;;5.10;4.60;;;18.80;82.70;;;;;;5075691;28;20431;-72
2021/08/01 02:23:36;;;;;;;5.90;4.90;;;18.80;83.10;;;;;;5075137;28;20476;-72
2021/08/01 02:26:05;;;;;;;4.17;3.77;;;18.80;82.80;;;;;;5075555;28;20482;-72
2021/08/01 02:28:35;;;;;;;5.33;4.83;;;18.80;82.80;;;;;;5075456;28;20844;-72
2021/08/01 02:31:03;;;;;;;4.60;4.20;;;18.80;82.40;;;;;;5075413;28;20440;-72
2021/08/01 02:33:29;;;;;;;4.60;4.20;;;18.80;82.40;;;;;;5075220;28;20491;-72
2021/08/01 02:36:00;;;;;;;5.23;4.67;;;18.80;82.50;;;;;;5075032;28;20452;-71
2021/08/01 02:38:28;;;;;;;5.83;3.80;;;18.80;82.60;;;;;;5075040;28;20440;-71
2021/08/01 02:40:58;;;;;;;6.67;4.10;;;18.80;82.40;;;;;;5075248;28;20463;-72
2021/08/01 02:43:30;;;;;;;4.70;4.20;;;18.80;82.20;;;;;;5074841;28;20468;-74
2021/08/01 02:45:57;;;;;;;7.80;4.40;;;18.80;82.30;;;;;;5075179;28;20432;-74
2021/08/01 02:48:26;;;;;;;4.97;4.50;;;18.80;81.70;;;;;;5075137;28;20468;-73
2021/08/01 02:50:58;;;;;;;5.40;4.40;;;18.70;81.70;;;;;;5075048;28;20452;-72
2021/08/01 02:53:25;;;;;;;4.83;4.43;;;18.70;82.00;;;;;;5074846;28;20484;-73
2021/08/01 02:55:54;;;;;;;5.00;4.47;;;18.70;82.00;;;;;;5074942;28;20437;-73
2021/08/01 02:58:21;;;;;;;5.23;4.70;;;18.70;81.60;;;;;;5074559;28;20811;-73
2021/08/01 03:00:50;;;;;;;5.93;4.53;;;18.80;82.10;;;;;;5074844;28;20448;-73
2021/08/01 03:03:17;;;;;;;6.73;4.87;;;18.80;81.80;;;;;;5074743;28;20461;-73
2021/08/01 03:05:44;;;;;;;11.53;5.17;;;18.70;81.30;;;;;;5073697;28;20444;-73
2021/08/01 03:08:13;;;;;;;6.30;4.83;;;18.70;81.20;;;;;;5074737;28;20451;-73
2021/08/01 03:10:43;;;;;;;7.03;4.57;;;18.80;81.60;;;;;;5074650;28;20445;-73
2021/08/01 03:13:10;;;;;;;7.17;4.80;;;18.80;81.40;;;;;;5074483;28;20571;-73
2021/08/01 03:15:37;;;;;;;5.90;5.17;;;18.80;81.40;;;;;;5074639;28;20472;-73
2021/08/01 03:18:05;;;;;;;6.57;4.70;;;18.80;81.20;;;;;;5074543;28;20479;-73
2021/08/01 03:20:32;;;;;;;7.77;5.63;;;18.80;80.60;;;;;;5074478;28;20445;-73
2021/08/01 03:22:59;;;;;;;6.10;5.50;;;18.70;80.80;;;;;;5074149;28;20491;-73
2021/08/01 03:25:25;;;;;;;6.93;5.33;;;18.60;81.10;;;;;;5074422;28;20448;-73
2021/08/01 03:27:52;;;;;;;7.97;5.23;;;18.60;81.40;;;;;;5074389;28;20444;-73
2021/08/01 03:30:19;;;;;;;5.80;5.30;;;18.60;81.80;;;;;;5074257;28;20445;-74
2021/08/01 03:32:45;;;;;;;6.50;5.80;;;18.60;81.80;;;;;;5074086;28;20481;-74
2021/08/01 03:35:13;;;;;;;8.40;6.60;;;18.50;82.00;;;;;;5074241;28;20441;-73
2021/08/01 03:37:40;;;;;;;8.50;7.47;;;18.60;81.90;;;;;;5074155;28;20486;-73
2021/08/01 03:40:08;;;;;;;12.23;9.13;;;18.50;82.00;;;;;;5073784;28;20498;-73
2021/08/01 03:42:35;;;;;;;14.03;10.90;;;18.40;82.10;;;;;;5074075;28;20447;-73
2021/08/01 03:45:01;;;;;;;12.63;11.43;;;18.30;82.60;;;;;;5073765;28;20780;-73
2021/08/01 03:47:28;;;;;;;15.80;13.57;;;18.30;83.10;;;;;;5074278;28;20447;-73
2021/08/01 03:49:55;;;;;;;20.33;14.90;;;18.20;83.20;;;;;;5073927;28;20825;-73
2021/08/01 03:52:23;;;;;;;20.90;16.80;;;18.10;83.50;;;;;;5073841;28;20448;-73
2021/08/01 03:54:51;;;;;;;23.13;17.40;;;18.10;83.60;;;;;;5073740;28;20464;-73
2021/08/01 03:57:18;;;;;;;19.13;17.20;;;18.10;83.90;;;;;;5073493;28;20956;-73
2021/08/01 03:59:45;;;;;;;18.57;16.43;;;18.00;84.10;;;;;;5073764;28;20440;-73
2021/08/01 04:02:12;;;;;;;18.30;16.40;;;17.90;84.30;;;;;;5073703;28;20444;-73
2021/08/01 04:04:39;;;;;;;21.67;16.50;;;17.90;84.70;;;;;;5073361;28;20978;-73
2021/08/01 04:07:06;;;;;;;20.90;16.60;;;17.90;85.00;;;;;;5073715;28;20440;-73
2021/08/01 04:09:35;;;;;;;17.93;15.27;;;17.90;84.80;;;;;;5073644;28;20437;-72
2021/08/01 04:12:01;;;;;;;17.40;15.07;;;17.90;84.90;;;;;;5073593;28;20436;-73
2021/08/01 04:14:31;;;;;;;16.80;15.00;;;17.90;84.90;;;;;;5073456;28;20476;-73
2021/08/01 04:16:59;;;;;;;15.50;13.90;;;17.80;85.70;;;;;;5073993;28;20429;-73
2021/08/01 04:19:26;;;;;;;17.80;14.30;;;17.80;85.20;;;;;;5073519;28;20881;-73
2021/08/01 04:21:53;;;;;;;18.13;13.17;;;17.80;85.70;;;;;;5073315;28;20491;-73
2021/08/01 04:24:19;;;;;;;14.53;12.97;;;17.80;85.50;;;;;;5073470;28;20538;-73
2021/08/01 04:26:47;;;;;;;14.07;12.00;;;17.90;85.50;;;;;;5073445;28;20532;-73
2021/08/01 04:29:14;;;;;;;13.40;11.53;;;17.90;84.90;;;;;;5073416;28;20445;-73
2021/08/01 04:31:41;;;;;;;16.50;12.33;;;17.90;85.00;;;;;;5073421;28;20448;-74
2021/08/01 04:34:07;;;;;;;18.10;11.93;;;17.80;85.20;;;;;;5073256;28;20534;-73
2021/08/01 04:36:34;;;;;;;12.97;11.67;;;17.80;85.20;;;;;;5073044;28;20845;-73
2021/08/01 04:39:01;;;;;;;13.90;11.60;;;17.80;85.70;;;;;;5076100;28;20475;-73
2021/08/01 04:41:27;;;;;;;13.03;11.10;;;17.80;85.40;;;;;;5073332;28;20448;-73
2021/08/01 04:43:55;;;;;;;15.20;10.30;;;17.80;85.40;;;;;;5073212;28;20460;-73
2021/08/01 04:46:22;;;;;;;14.03;10.37;;;17.80;85.40;;;;;;5073248;28;20449;-73
2021/08/01 04:48:49;;;;;;;11.10;9.33;;;17.70;85.50;;;;;;5073217;28;20440;-73
2021/08/01 04:51:16;;;;;;;11.00;8.90;;;17.70;85.70;;;;;;5073210;28;20453;-73
2021/08/01 04:53:42;;;;;;;9.67;8.33;;;17.70;85.20;;;;;;5073070;28;20484;-73
2021/08/01 04:56:09;;;;;;;9.83;7.93;;;17.60;85.30;;;;;;5073977;28;20444;-73
2021/08/01 04:58:36;;;;;;;15.00;8.80;;;17.60;85.30;;;;;;5072860;28;20845;-73
2021/08/01 05:01:10;;;;;;;8.00;7.20;;;17.60;85.20;;;;;;5073137;28;20446;-73
2021/08/01 05:03:37;;;;;;;11.87;8.50;;;17.50;85.30;;;;;;5073110;28;20468;-73
2021/08/01 05:06:04;;;;;;;9.63;6.77;;;17.50;85.60;;;;;;5072797;28;20943;-73
2021/08/01 05:08:30;;;;;;;8.23;6.97;;;17.50;85.70;;;;;;5073072;28;20445;-74
2021/08/01 05:10:57;;;;;;;11.17;7.90;;;17.40;85.50;;;;;;5073063;28;20444;-74
2021/08/01 05:13:24;;;;;;;10.53;7.77;;;17.40;85.70;;;;;;5072898;28;20485;-73
2021/08/01 05:15:50;;;;;;;9.77;7.20;;;17.50;85.60;;;;;;5073014;28;20444;-73
2021/08/01 05:18:20;;;;;;;10.50;6.53;;;17.50;85.60;;;;;;5072954;28;20452;-73
2021/08/01 05:20:47;;;;;;;12.00;6.97;;;17.60;85.50;;;;;;5073013;28;20440;-73
2021/08/01 05:23:14;;;;;;;10.70;7.03;;;17.60;85.40;;;;;;5072436;28;20488;-74
2021/08/01 05:25:41;;;;;;;10.47;7.00;;;17.70;85.40;;;;;;5073725;28;20837;-74
2021/08/01 05:28:07;;;;;;;9.27;6.03;;;17.70;84.70;;;;;;5072604;28;20798;-74
2021/08/01 05:30:34;;;;;;;12.10;6.40;;;17.70;84.90;;;;;;5076564;28;20463;-74
2021/08/01 05:33:05;;;;;;;7.17;6.27;;;17.70;84.40;;;;;;5076373;28;20510;-74
2021/08/01 05:35:33;;;;;;;9.27;5.90;;;17.70;84.50;;;;;;5076495;28;20441;-74
2021/08/01 05:38:01;;;;;;;7.30;6.10;;;17.80;84.90;;;;;;5076424;28;20440;-74
2021/08/01 05:40:27;;;;;;;18.43;7.20;;;17.90;84.50;;;;;;5076339;28;20440;-73
2021/08/01 05:42:54;;;;;;;10.87;6.10;;;17.90;84.00;;;;;;5076261;28;20472;-74
2021/08/01 05:45:21;;;;;;;11.63;5.47;;;17.90;83.40;;;;;;5075989;28;20436;-73
2021/08/01 05:47:47;;;;;;;12.63;6.70;;;18.00;83.50;;;;;;5076252;28;20449;-73
2021/08/01 05:50:14;;;;;;;9.47;5.40;;;18.00;83.50;;;;;;5076194;28;20437;-74
2021/08/01 05:52:42;;;;;;;8.13;5.07;;;18.00;83.80;;;;;;5076068;28;20614;-74
2021/08/01 05:55:09;;;;;;;9.30;5.83;;;18.00;83.50;;;;;;5076025;28;20473;-74
2021/08/01 05:57:36;;;;;;;9.17;5.77;;;18.10;83.20;;;;;;5075765;28;20451;-74
2021/08/01 06:00:04;;;;;;;10.40;5.77;;;18.10;82.50;;;;;;5075744;28;20448;-74
2021/08/01 06:02:31;;;;;;;9.27;5.30;;;18.20;82.50;;;;;;5075990;28;20441;-74
2021/08/01 06:04:57;;;;;;;12.43;6.40;;;18.20;82.40;;;;;;5076074;28;20436;-73
2021/08/01 06:07:24;;;;;;;8.70;5.43;;;18.20;82.30;;;;;;5075887;28;20437;-73
2021/08/01 06:09:52;;;;;;;9.10;5.60;;;18.20;82.40;;;;;;5075735;28;20440;-73
2021/08/01 06:12:19;;;;;;;8.03;6.00;;;18.20;82.00;;;;;;5075504;28;20812;-73
2021/08/01 06:14:49;;;;;;;12.70;5.87;;;18.20;81.90;;;;;;5075641;28;20503;-74
2021/08/01 06:17:16;;;;;;;11.00;5.80;;;18.20;82.20;;;;;;5075883;28;20440;-73
2021/08/01 06:19:42;;;;;;;13.80;6.70;;;18.30;82.50;;;;;;5075403;28;20444;-74
2021/08/01 06:22:09;;;;;;;10.57;5.93;;;18.30;82.40;;;;;;5075388;28;20888;-73
2021/08/01 06:24:36;;;;;;;8.13;6.60;;;18.40;82.30;;;;;;5075537;28;20460;-74
2021/08/01 06:27:05;;;;;;;8.70;6.33;;;18.40;82.00;;;;;;5075564;28;20452;-73
2021/08/01 06:29:32;;;;;;;15.43;7.47;;;18.50;81.90;;;;;;5075490;28;20476;-73
2021/08/01 06:31:58;;;;;;;14.67;7.70;;;18.60;81.70;;;;;;5075448;28;20491;-74
2021/08/01 06:34:25;;;;;;;10.70;6.77;;;18.60;81.70;;;;;;5074889;28;20485;-74
2021/08/01 06:36:52;;;;;;;9.17;6.00;;;18.70;82.10;;;;;;5075367;28;20444;-73
2021/08/01 06:39:19;;;;;;;12.20;6.43;;;18.80;81.30;;;;;;5074680;28;20441;-73
2021/08/01 06:41:45;;;;;;;10.13;6.27;;;18.90;81.30;;;;;;5075270;28;20474;-74
2021/08/01 06:44:13;;;;;;;14.03;7.50;;;19.00;80.20;;;;;;5074815;28;21027;-74
2021/08/01 06:46:40;;;;;;;7.93;6.23;;;19.10;79.90;;;;;;5075174;28;20447;-73
2021/08/01 06:49:07;;;;;;;10.00;7.00;;;19.20;79.80;;;;;;5074781;28;20953;-73
2021/08/01 06:51:34;;;;;;;9.90;7.20;;;19.40;79.00;;;;;;5075024;28;20448;-73
2021/08/01 06:54:00;;;;;;;10.77;6.70;;;19.50;77.70;;;;;;5074860;28;20481;-74
2021/08/01 06:56:27;;;;;;;11.97;7.10;;;19.60;77.40;;;;;;5074906;28;20456;-74
2021/08/01 06:58:54;;;;;;;13.20;6.60;;;19.60;77.10;;;;;;5074884;28;20474;-73
2021/08/01 07:01:22;;;;;;;10.40;6.30;;;19.60;76.50;;;;;;5074835;28;20452;-73
2021/08/01 07:03:48;;;;;;;11.43;6.80;;;19.70;76.80;;;;;;5074717;28;20471;-74
2021/08/01 07:06:15;;;;;;;12.50;6.40;;;19.80;75.60;;;;;;5074731;28;20445;-74
2021/08/01 07:08:42;;;;;;;11.00;7.87;;;19.80;75.70;;;;;;5074673;28;20498;-74
2021/08/01 07:11:08;;;;;;;10.43;6.57;;;19.80;75.10;;;;;;5074331;28;20927;-74
2021/08/01 07:13:36;;;;;;;7.53;5.20;;;19.80;75.70;;;;;;5074485;28;20465;-74
2021/08/01 07:16:03;;;;;;;10.43;7.10;;;19.90;74.70;;;;;;5074548;28;20445;-74
2021/08/01 07:18:31;;;;;;;12.00;5.67;;;20.10;75.00;;;;;;5074476;28;20441;-74
2021/08/01 07:20:59;;;;;;;10.67;5.80;;;20.30;75.20;;;;;;5074151;28;20445;-74
2021/08/01 07:23:27;;;;;;;10.50;5.80;;;20.40;74.20;;;;;;5073956;28;20487;-74
2021/08/01 07:25:53;;;;;;;13.20;6.63;;;20.60;73.00;;;;;;5074289;28;20491;-74
2021/08/01 07:28:20;;;;;;;13.03;6.77;;;20.70;73.10;;;;;;5075109;28;20440;-74
2021/08/01 07:30:47;;;;;;;10.80;6.57;;;20.60;70.70;;;;;;5074289;28;20441;-74
2021/08/01 07:33:13;;;;;;;8.10;6.10;;;20.60;71.30;;;;;;5074143;28;20460;-74
2021/08/01 07:35:43;;;;;;;10.37;6.03;;;20.60;70.40;;;;;;5074093;28;20476;-74
2021/08/01 07:38:09;;;;;;;14.43;5.87;;;20.50;70.20;;;;;;5074106;28;20448;-74
2021/08/01 07:40:36;;;;;;;8.40;5.50;;;20.50;70.20;;;;;;5074081;28;20444;-74
2021/08/01 07:43:03;;;;;;;11.17;5.90;;;20.50;69.90;;;;;;5073973;28;20464;-74
2021/08/01 07:45:31;;;;;;;12.60;6.53;;;20.40;70.30;;;;;;5073988;28;20437;-74
2021/08/01 07:47:58;;;;;;;7.57;6.20;;;20.40;70.20;;;;;;5073952;28;20444;-74
2021/08/01 07:50:25;;;;;;;9.07;5.63;;;20.40;71.60;;;;;;5073921;28;20452;-74
2021/08/01 07:52:53;;;;;;;7.60;5.80;;;20.40;70.20;;;;;;5073214;28;20494;-74
2021/08/01 07:55:20;;;;;;;8.90;5.30;;;20.40;70.20;;;;;;5073742;28;20479;-74
2021/08/01 07:57:49;;;;;;;10.40;5.90;;;20.20;69.40;;;;;;5073773;28;20494;-74
2021/08/01 08:00:17;;;;;;;8.13;6.03;;;20.20;69.60;;;;;;5073473;28;20502;-74
2021/08/01 08:02:43;;;;;;;7.03;5.50;;;20.10;70.10;;;;;;5073721;28;20444;-74
2021/08/01 08:05:11;;;;;;;8.27;5.47;;;20.20;70.40;;;;;;5073856;28;20440;-74
2021/08/01 08:07:38;;;;;;;9.40;6.30;;;20.20;70.10;;;;;;5073448;28;20441;-74
2021/08/01 08:10:08;;;;;;;10.43;6.00;;;20.20;70.60;;;;;;5073331;28;20445;-74
2021/08/01 08:12:35;;;;;;;7.70;5.60;;;20.30;70.20;;;;;;5073516;28;20452;-74
2021/08/01 08:15:02;;;;;;;8.57;6.00;;;20.20;67.60;;;;;;5073504;28;20477;-74
2021/08/01 08:17:33;;;;;;;9.73;6.20;;;20.20;68.50;;;;;;5073535;28;20448;-74
2021/08/01 08:20:00;;;;;;;9.80;6.50;;;20.30;69.70;;;;;;5073556;28;20433;-74
2021/08/01 08:22:27;;;;;;;8.00;5.80;;;20.30;68.40;;;;;;5073020;28;20962;-74
2021/08/01 08:24:53;;;;;;;7.03;6.33;;;20.40;70.20;;;;;;5073398;28;20457;-74
2021/08/01 08:27:21;;;;;;;6.33;5.60;;;20.40;68.00;;;;;;5073427;28;20445;-74
2021/08/01 08:29:48;;;;;;;6.70;5.47;;;20.40;68.00;;;;;;5073406;28;20444;-74
2021/08/01 08:32:15;;;;;;;7.20;4.80;;;20.40;68.40;;;;;;5073099;28;20935;-74
2021/08/01 08:34:41;;;;;;;9.80;4.73;;;20.40;67.80;;;;;;5073830;28;20806;-74
2021/08/01 08:37:09;;;;;;;5.17;4.70;;;20.30;67.50;;;;;;5073411;28;20445;-74
2021/08/01 08:39:36;;;;;;;7.60;5.00;;;20.40;69.50;;;;;;5073349;28;20445;-74
2021/08/01 08:42:03;;;;;;;8.03;5.20;;;20.50;68.90;;;;;;5073355;28;20455;-74
2021/08/01 08:44:31;;;;;;;7.53;5.20;;;20.70;68.10;;;;;;5074139;28;20491;-74
2021/08/01 08:46:58;;;;;;;8.10;5.70;;;20.90;66.50;;;;;;5073301;28;20820;-74
2021/08/01 08:49:25;;;;;;;5.60;4.20;;;21.10;66.30;;;;;;5073290;28;20502;-74
2021/08/01 08:51:54;;;;;;;8.43;4.10;;;21.20;65.20;;;;;;5073267;28;20467;-74
2021/08/01 08:54:24;;;;;;;9.27;4.43;;;21.40;65.20;;;;;;5072768;28;20850;-74
2021/08/01 08:56:54;;;;;;;6.60;3.70;;;21.70;63.60;;;;;;5072840;28;20935;-74
2021/08/01 08:59:22;;;;;;;6.63;3.73;;;21.90;62.80;;;;;;5073187;28;20429;-74
2021/08/01 09:01:50;;;;;;;6.60;4.20;;;22.00;62.10;;;;;;5073155;28;20445;-74
2021/08/01 09:04:17;;;;;;;10.57;4.50;;;22.10;61.70;;;;;;5076338;28;21036;-74
2021/08/01 09:06:44;;;;;;;6.43;4.40;;;22.30;62.40;;;;;;5077006;28;20805;-74
2021/08/01 09:09:13;;;;;;;4.70;3.70;;;22.40;61.70;;;;;;5076683;28;20952;-74
2021/08/01 09:11:40;;;;;;;6.70;4.40;;;22.30;58.80;;;;;;5076881;28;20444;-74
2021/08/01 09:14:19;;;;;;;3.67;3.00;;;22.20;59.60;;;;;;5076729;28;20510;-73
2021/08/01 09:16:48;;;;;;;5.17;3.73;;;22.40;60.80;;;;;;5076843;28;20452;-74
2021/08/01 09:19:30;;;;;;;6.77;4.03;;;22.50;59.90;;;;;;5076398;28;20889;-74
2021/08/01 09:22:11;;;;;;;8.67;3.57;;;22.50;60.30;;;;;;5076536;28;20460;-72
2021/08/01 09:24:38;;;;;;;11.03;4.33;;;22.60;59.50;;;;;;5076639;28;20506;-74
2021/08/01 09:27:05;;;;;;;4.77;4.13;;;22.80;59.80;;;;;;5076694;28;20821;-72
2021/08/01 09:29:33;;;;;;;5.57;4.30;;;22.90;59.20;;;;;;5076536;28;20448;-72
2021/08/01 09:32:01;;;;;;;7.50;4.13;;;22.90;58.80;;;;;;5076496;28;20447;-74
2021/08/01 09:34:30;;;;;;;8.37;4.20;;;23.10;60.50;;;;;;5075975;28;20977;-74
2021/08/01 09:36:59;;;;;;;7.40;4.27;;;23.30;59.50;;;;;;5076383;28;20436;-72
2021/08/01 09:39:27;;;;;;;10.27;4.60;;;23.50;59.30;;;;;;5076298;28;20535;-74
2021/08/01 09:42:01;;;;;;;10.07;3.80;;;23.70;58.70;;;;;;5076362;28;20444;-72
2021/08/01 09:44:28;;;;;;;7.13;4.30;;;23.90;57.40;;;;;;5075902;28;20507;-73
2021/08/01 09:46:57;;;;;;;9.30;3.90;;;24.00;56.90;;;;;;5076246;28;20517;-73
2021/08/01 09:49:26;;;;;;;8.90;4.03;;;24.10;57.20;;;;;;5076193;28;20444;-73
2021/08/01 09:51:56;;;;;;;7.97;4.60;;;24.30;56.40;;;;;;5076130;28;20479;-73
2021/08/01 09:54:24;;;;;;;5.33;4.17;;;24.40;55.30;;;;;;5075686;28;20472;-73
2021/08/01 09:56:58;;;;;;;5.93;3.97;;;24.40;55.90;;;;;;5076070;28;20440;-73
2021/08/01 09:59:26;;;;;;;7.30;3.77;;;24.40;56.00;;;;;;5076023;28;20441;-72
2021/08/01 10:01:55;;;;;;;4.63;3.37;;;24.40;55.60;;;;;;5075989;28;20448;-72
2021/08/01 10:04:24;;;;;;;6.00;3.43;;;24.40;55.50;;;;;;5075893;28;20494;-73
2021/08/01 10:07:06;;;;;;;5.80;3.67;;;24.40;55.50;;;;;;5075885;28;20476;-73
2021/08/01 10:09:33;;;;;;;5.53;3.80;;;24.40;54.30;;;;;;5075590;28;20832;-73
2021/08/01 10:12:00;;;;;;;8.10;4.07;;;24.30;54.50;;;;;;5075846;28;20441;-73
2021/08/01 10:14:28;;;;;;;7.23;4.47;;;24.30;55.90;;;;;;5075207;28;20522;-73
2021/08/01 10:16:55;;;;;;;6.30;4.00;;;24.10;56.00;;;;;;5075751;28;20476;-73
2021/08/01 10:19:22;;;;;;;7.47;4.17;;;23.90;56.50;;;;;;5075673;28;20494;-73
2021/08/01 10:21:50;;;;;;;5.37;4.17;;;23.80;56.80;;;;;;5075451;28;20464;-73
2021/08/01 10:24:23;;;;;;;6.83;3.90;;;23.90;57.60;;;;;;5075525;28;20512;-73
2021/08/01 10:26:53;;;;;;;6.63;3.57;;;24.10;55.70;;;;;;5075631;28;20429;-73
2021/08/01 10:29:24;;;;;;;6.67;3.93;;;24.10;54.70;;;;;;5075514;28;20445;-73
2021/08/01 10:31:56;;;;;;;6.00;3.40;;;23.90;56.00;;;;;;5075494;28;20429;-73
2021/08/01 10:34:35;;;;;;;10.13;4.70;;;23.90;55.70;;;;;;5075121;28;20974;-74
2021/08/01 10:37:05;;;;;;;6.20;3.60;;;23.90;56.60;;;;;;5075421;28;20429;-73
2021/08/01 10:39:34;;;;;;;6.67;4.03;;;23.80;56.30;;;;;;5075025;28;20437;-74
2021/08/01 10:42:06;;;;;;;3.80;3.50;;;23.60;55.40;;;;;;5075261;28;20480;-73
2021/08/01 10:44:34;;;;;;;5.20;4.00;;;23.50;56.90;;;;;;5075189;28;20472;-74
2021/08/01 10:47:01;;;;;;;6.73;4.07;;;23.50;57.30;;;;;;5075150;28;20822;-72
2021/08/01 10:49:28;;;;;;;4.33;3.90;;;23.50;56.50;;;;;;5075193;28;20452;-73
2021/08/01 10:51:55;;;;;;;5.00;3.60;;;23.70;56.90;;;;;;5074995;28;20445;-73
2021/08/01 10:54:33;;;;;;;7.83;4.10;;;23.70;56.10;;;;;;5074927;28;20469;-74
2021/08/01 10:57:15;;;;;;;7.03;4.03;;;23.80;56.70;;;;;;5074869;28;20476;-74
2021/08/01 11:00:04;;;;;;;5.43;4.00;;;24.20;56.80;;;;;;5073073;28;20455;-74
2021/08/01 11:02:32;;;;;;;5.97;3.90;;;24.80;55.10;;;;;;5074854;28;20528;-73
2021/08/01 11:04:59;;;;;;;4.53;3.80;;;25.50;54.20;;;;;;5074394;28;20986;-74
2021/08/01 11:08:03;;;;;;;3.37;3.17;;;26.40;52.00;;;;;;5074693;28;20437;-73
2021/08/01 11:10:32;;;;;;;12.00;4.90;;;27.40;49.20;;;;;;5012592;28;20459;-73
2021/08/01 11:12:59;;;;;;;5.83;3.97;;;28.20;46.60;;;;;;5012460;28;20490;-73
2021/08/01 11:15:45;;;;;;;5.03;4.60;;;28.30;44.90;;;;;;5042377;28;20994;-75
2021/08/01 11:18:12;;;;;;;5.10;4.17;;;27.80;45.90;;;;;;5074102;28;20480;-72
2021/08/01 11:20:49;;;;;;;7.30;4.53;;;27.30;47.90;;;;;;5074444;28;20798;-72
2021/08/01 11:23:16;;;;;;;8.23;5.43;;;26.80;48.50;;;;;;5073985;28;20499;-72
2021/08/01 11:26:09;;;;;;;5.37;4.90;;;26.50;49.40;;;;;;5073865;28;20460;-73
2021/08/01 11:28:36;;;;;;;7.93;5.90;;;26.30;50.20;;;;;;5074032;28;20424;-73
2021/08/01 11:31:18;;;;;;;7.23;5.97;;;26.30;50.00;;;;;;5074278;28;20447;-73
2021/08/01 11:33:46;;;;;;;5.80;5.30;;;26.30;49.80;;;;;;5074187;28;20464;-72
2021/08/01 11:36:25;;;;;;;5.30;4.80;;;26.10;50.10;;;;;;5073779;28;20997;-73
2021/08/01 11:39:06;;;;;;;5.63;5.20;;;25.90;50.70;;;;;;5073839;28;20445;-72
2021/08/01 11:41:42;;;;;;;10.30;6.47;;;26.20;51.00;;;;;;5074066;28;20452;-73
2021/08/01 11:44:15;;;;;;;6.00;4.80;;;27.00;49.00;;;;;;5073965;28;20468;-73
2021/08/01 11:47:03;;;;;;;4.40;4.00;;;27.80;45.50;;;;;;5074044;28;20432;-73
2021/08/01 11:49:33;;;;;;;6.73;4.10;;;29.00;44.90;;;;;;5073990;28;20429;-73
2021/08/01 11:52:02;;;;;;;3.93;3.40;;;29.90;41.90;;;;;;5073921;28;20522;-73
2021/08/01 11:54:30;;;;;;;5.73;4.57;;;30.80;41.20;;;;;;5073732;28;20460;-73
2021/08/01 11:57:00;;;;;;;4.20;3.80;;;31.70;38.10;;;;;;5073773;28;20487;-73
2021/08/01 11:59:28;;;;;;;5.70;4.00;;;32.50;35.70;;;;;;5073799;28;20497;-73
2021/08/01 12:01:55;;;;;;;3.80;3.13;;;33.00;35.10;;;;;;5073773;28;20436;-73
2021/08/01 12:04:23;;;;;;;9.20;3.57;;;33.80;33.80;;;;;;5073659;28;20468;-74
2021/08/01 12:06:52;;;;;;;4.77;3.57;;;34.50;31.40;;;;;;5073737;28;20440;-74
2021/08/01 12:09:20;;;;;;;3.70;3.40;;;34.70;30.90;;;;;;5073670;28;20498;-73
2021/08/01 12:11:49;;;;;;;8.67;4.00;;;34.10;31.10;;;;;;5073671;28;20440;-74
2021/08/01 12:14:18;;;;;;;4.30;3.80;;;33.20;33.10;;;;;;5073519;28;20464;-74
2021/08/01 12:16:56;;;;;;;4.87;4.43;;;32.20;34.60;;;;;;5073218;28;20472;-73
2021/08/01 12:19:24;;;;;;;4.47;4.00;;;31.10;35.80;;;;;;5073310;28;20925;-74
2021/08/01 12:21:55;;;;;;;4.17;3.87;;;30.00;38.60;;;;;;5073365;28;20464;-74
2021/08/01 12:24:34;;;;;;;4.00;3.60;;;29.10;40.30;;;;;;5073467;28;20473;-73
2021/08/01 12:27:03;;;;;;;4.90;3.50;;;28.30;42.20;;;;;;5073525;28;20429;-73
2021/08/01 12:29:34;;;;;;;3.30;3.00;;;27.80;43.50;;;;;;5073451;28;20471;-73
2021/08/01 12:32:02;;;;;;;3.57;3.00;;;27.90;44.90;;;;;;5073387;28;20448;-73
2021/08/01 12:34:29;;;;;;;7.30;3.63;;;28.20;43.40;;;;;;5073378;28;20461;-73
2021/08/01 12:36:56;;;;;;;3.97;2.60;;;28.90;43.40;;;;;;5073538;28;20483;-73
2021/08/01 12:39:23;;;;;;;4.37;3.10;;;30.10;42.60;;;;;;5079931;28;20464;-73
2021/08/01 12:41:51;;;;;;;5.23;3.20;;;30.80;38.30;;;;;;5080006;28;20448;-73
2021/08/01 12:44:18;;;;;;;4.00;3.37;;;30.90;39.10;;;;;;5079938;28;20492;-73
2021/08/01 12:46:47;;;;;;;4.77;2.70;;;31.10;38.50;;;;;;5079640;28;20957;-73
2021/08/01 12:49:14;;;;;;;7.20;3.13;;;30.60;38.10;;;;;;5079952;28;20451;-73
2021/08/01 12:51:43;;;;;;;4.00;2.90;;;30.10;39.30;;;;;;5079643;28;20451;-73